Record high temperature 52.3°C Record low temperature -14.8°C Record high gust 66.0 kts Record high average 44.0 kts Record daily rain 221.2 mm Record low windchill -23.5°C Record high barometer 1099.9 hPa Record low barometer 815.2 hPa
Daily high pressure 1003.0 hPa Daily low pressure 994.6 hPa Daily low windchill 20.8°C Daily high heat index 33.8°C Daily high gust speed 27.0 kts S Daily high average speed 10.7 kts S
Potts Point Sydney
LAST READING AT TIME: 04:00 DATE: 27 February 2020, time of next update: 04:10
Current WeatherClear/mostly cloudy Current Temperature 20.8°C (69.4°F) (Heat Index 20.8°C ), Apparent temp 21.3°C
Maximum Temperature (since 9am)31.9°C at: 13:06 Minimum Temperature (since 9am)20.8°C at: 02:54
Average windspeed (ten minute)3.3 kts (6.1 kmh) Wind Direction (ten minute)SSE (160°)
Heat Index 20.8°C Maximum Gust (last hour)10.9 kts (20.1 kmh) at: 03:26
Maximum Gust (since 9am)27.0 kts (50.0 kmh) at: 22:13 Maximum 1 minute average (since 9am)10.7 kts (19.8 kmh) at: 21:49
Rainfall (last hour)0.0 mm Rainfall (since 9am)0.4 mm (0.01 in.) at 17:15
Rainfall This month 374.4 mm (14.74 in.) Rainfall To date this year 382.9 mm (15.08 in.)
Maximum rain per minute (last hour)0.0 mm/min Maximum rain per hour (last 6 hours)0.0 mm/hour
Yesterdays rainfall 0.0 mm DewPoint 14.2°C (Wet Bulb :16.9°C )
Humidity 66 %, Humidex 24.3°C Barometer corrected to msl1002.6 hPa
Pressure change 0.1 hPa (last hour) Trend (last hour)STEADY
Pressure change (last 12 hours)+7.7 hPa Pressure change (last 6 hours)+1.9 hPa
Current Indoor Temp. 23.6°C
Current Indoor Hum. 49%
Current 00:00 hours of sunshine today, current sky: Clear/mostly cloudy
Sunshine hours for the year: 576:04 hrs Sunshine hours for the month: 245:09 hrs
Current evapotranspiration rate 0.9 mm per day. Yesterday's reading 4.9

This page is updated from recent data collected by a WeatherFlow weather station Use the Reload or Refresh facility on your browser to retrieve the latest data.


Animated web cam image


Weather report/warning/Metars

Sydney Airport, Australia (YSSY) 33-57S 151-11E 3M
Feb 26, 2020 - 11:30 AM EST / 2020.02.26 1630 UTC
Wind: from the SSE (160 degrees) at 16 MPH (14 KT):0
Visibility: greater than 7 mile(s):0
Sky conditions: mostly cloudy
Temperature: 68 F (20 C)
Dew Point: 57 F (14 C)
Relative Humidity: 68%
Pressure (altimeter): 29.83 in. Hg (1010 hPa)
ob: YSSY 261630Z 16014KT 9999 FEW025 SCT030 BKN040 20/14 Q1010 NOSIG
cycle: 16
Auckland Airport, New Zealand (NZAA) 37-01S 174-48E 6M
Feb 26, 2020 - 11:30 AM EST / 2020.02.26 1630 UTC
Wind: from the S (170 degrees) at 2 MPH (2 KT):0
Visibility: greater than 7 mile(s):0
Sky conditions: mostly cloudy
Temperature: 64 F (18 C)
Dew Point: 60 F (16 C)
Relative Humidity: 88%
Pressure (altimeter): 29.97 in. Hg (1015 hPa)
ob: NZAA 261630Z AUTO 17002KT 9999 BKN036/// 18/16 Q1015 NOSIG
cycle: 16